首页
METAR-TAF:

METAR-TAF

机场 :

明尼阿波利斯-圣保罗国际机场

明尼阿波利斯, 明尼蘇達州, 美国

纬度: 44-52-59N, 经度: 093-13-44W, 海拔: 256米

当前天气观测

该预报发布于1小时和7分钟前的09:53 UTC
风速8节,风向
温度 12°C
湿度 50%
气压 1013 hPa
能見度: 16.1公里
多云层高于22000英尺

METAR: KMSP 240953Z 18008KT 10SM BKN220 12/02 A2991 RMK AO2 SLP129 T01170017

时间: 06:00 (11:00 UTC)

预报

该预报发布于2小时和1分钟前的08:59 UTC
预报有效从24日的 09点(UTC)到 25日的 12点(UTC)
风速10节,风向
能見度: 10公里
散云层高于20000英尺
从 24日的 1500点(UTC)
风速10节,风向,有时为21节阵风
能見度: 10公里
散云层高于20000英尺
从 24日的 2000点(UTC)
风速11节,风向西南,有时为19节阵风
能見度: 10公里
散云层高于20000英尺
从 25日的 0000点(UTC)
风速8节,风向西转西南
能見度: 10公里
多云层高于10000英尺
从 25日的 0900点(UTC)
风速5节,风向西北
能見度: 10公里
散云层高于20000英尺

TAF: KMSP 240859Z 2409/2512 17010KT P6SM SCT200 FM241500 19010G21KT P6SM SCT200 FM242000 22011G19KT P6SM SCT200 FM250000 24008KT P6SM BKN100 FM250900 31005KT P6SM SCT200

超过4000个机场的气象观测和天气预报(METAR&TAF报告)。

可查询的气象台以黄色和红色小点在地图上表示。

将鼠标移到小点上方,可查看气象台名称。

然后点击查看天气观测和预报。

如需切换地图:点击带黑十字的绿色按钮放大地图;点击带横线的绿色按钮缩小地图;或者点击绿色箭头查看邻近地区的地图。


METAR-TAF: